createdAt,value
2023-04-09T00:00:30.885Z,54.0122
2023-04-09T00:01:32.527Z,53.9128
2023-04-09T00:02:34.134Z,54.1588
2023-04-09T00:03:35.975Z,54.3449
2023-04-09T00:04:37.512Z,54.5437
2023-04-09T00:05:39.045Z,54.4591
2023-04-09T00:06:40.729Z,54.1905
2023-04-09T00:07:44.498Z,53.9568
2023-04-09T00:08:44.001Z,53.7722
2023-04-09T00:09:45.795Z,53.6568
2023-04-09T00:10:47.419Z,53.9453
2023-04-09T00:11:49.014Z,54.3140
2023-04-09T00:12:50.658Z,54.3066
2023-04-09T00:13:52.355Z,54.0182
2023-04-09T00:14:53.949Z,53.7310
2023-04-09T00:15:55.639Z,53.5970
2023-04-09T00:16:57.327Z,53.6427
2023-04-09T00:17:58.941Z,53.5991
2023-04-09T00:19:00.566Z,53.5625
2023-04-09T00:20:02.230Z,53.6783
2023-04-09T00:21:03.874Z,53.6940
2023-04-09T00:22:05.538Z,53.8412
2023-04-09T00:23:07.217Z,53.8768
2023-04-09T00:24:08.741Z,53.9104
2023-04-09T00:25:10.451Z,53.8505
2023-04-09T00:26:12.178Z,53.7323
2023-04-09T00:27:13.870Z,53.7615
2023-04-09T00:28:15.471Z,53.6884
2023-04-09T00:29:17.208Z,53.5170
2023-04-09T00:30:18.800Z,53.4184
2023-04-09T00:31:20.877Z,53.3312
2023-04-09T00:32:22.075Z,53.2982
2023-04-09T00:33:23.652Z,53.1440
2023-04-09T00:34:25.336Z,52.9773
2023-04-09T00:35:26.974Z,52.9100
2023-04-09T00:36:28.728Z,52.8716
2023-04-09T00:37:30.315Z,52.8343
2023-04-09T00:38:31.999Z,52.8343
2023-04-09T00:39:33.621Z,52.8464
2023-04-09T00:40:35.255Z,52.7574
2023-04-09T00:41:37.009Z,52.7704
2023-04-09T00:42:38.590Z,52.6014
2023-04-09T00:43:40.274Z,52.4321
2023-04-09T00:44:41.810Z,52.3293
2023-04-09T00:45:43.536Z,52.3149
2023-04-09T00:46:45.106Z,52.1907
2023-04-09T00:47:47.383Z,52.2400
2023-04-09T00:48:48.510Z,52.2418
2023-04-09T00:49:50.179Z,52.1525
2023-04-09T00:50:51.748Z,52.0941
2023-04-09T00:51:53.387Z,52.2178
2023-04-09T00:52:55.154Z,52.2122
2023-04-09T00:53:56.788Z,52.2591
2023-04-09T00:54:58.439Z,52.3580
2023-04-09T00:56:00.031Z,52.3137
2023-04-09T00:57:01.678Z,52.2698
2023-04-09T00:58:03.432Z,52.3380
2023-04-09T00:59:05.370Z,52.2879
2023-04-09T01:00:06.718Z,51.9997
2023-04-09T01:01:08.398Z,51.8073
2023-04-09T01:02:10.922Z,51.7197
2023-04-09T01:03:12.029Z,52.9890
2023-04-09T01:04:13.346Z,55.3986
2023-04-09T01:05:14.928Z,56.0057
2023-04-09T01:06:16.538Z,55.8907
2023-04-09T01:07:18.281Z,55.4629
2023-04-09T01:08:20.103Z,55.0289
2023-04-09T01:09:21.565Z,54.8264
2023-04-09T01:10:23.206Z,54.9696
2023-04-09T01:11:24.982Z,55.3349
2023-04-09T01:12:26.511Z,55.3969
2023-04-09T01:13:28.223Z,54.9227
2023-04-09T01:14:29.940Z,54.4876
2023-04-09T01:15:31.524Z,54.1146
2023-04-09T01:16:33.136Z,54.1695
2023-04-09T01:17:34.892Z,54.3189
2023-04-09T01:18:36.505Z,54.6427
2023-04-09T01:19:38.124Z,54.5369
2023-04-09T01:20:39.828Z,54.2091
2023-04-09T01:21:41.423Z,53.7829
2023-04-09T01:22:43.078Z,53.5598
2023-04-09T01:23:44.791Z,53.4684
2023-04-09T01:24:46.398Z,53.7674
2023-04-09T01:25:48.068Z,53.8774
2023-04-09T01:26:49.701Z,53.6072
2023-04-09T01:27:51.345Z,53.2617
2023-04-09T01:28:53.459Z,52.9680
2023-04-09T01:29:54.675Z,52.8856
2023-04-09T01:30:56.455Z,52.9401
2023-04-09T01:31:57.966Z,53.2401
2023-04-09T01:33:00.036Z,53.1202
2023-04-09T01:34:01.414Z,52.8994
2023-04-09T01:35:02.905Z,52.5671
2023-04-09T01:36:04.719Z,52.3423
2023-04-09T01:37:06.294Z,52.3092
2023-04-09T01:38:07.898Z,52.5996
2023-04-09T01:39:09.611Z,52.7586
2023-04-09T01:40:11.340Z,52.6067
2023-04-09T01:41:12.763Z,52.2205
2023-04-09T01:42:14.450Z,51.9996
2023-04-09T01:43:16.089Z,51.9760
2023-04-09T01:44:17.733Z,52.0441
2023-04-09T01:45:19.460Z,52.2705
2023-04-09T01:46:21.134Z,52.1351
2023-04-09T01:47:22.701Z,51.9442
2023-04-09T01:48:24.355Z,51.6873
2023-04-09T01:49:26.155Z,51.5651
2023-04-09T01:50:27.827Z,51.6863
2023-04-09T01:51:29.362Z,52.0655
2023-04-09T01:52:31.778Z,52.1403
2023-04-09T01:53:32.756Z,51.9331
2023-04-09T01:54:34.509Z,51.6451
2023-04-09T01:55:36.046Z,51.3037
2023-04-09T01:56:37.760Z,51.3035
2023-04-09T01:57:39.326Z,51.3753
2023-04-09T01:58:41.040Z,51.7087
2023-04-09T01:59:42.646Z,51.7734
2023-04-09T02:00:45.286Z,51.5083
2023-04-09T02:01:46.966Z,51.1655
2023-04-09T02:02:47.749Z,50.9391
2023-04-09T02:03:49.389Z,50.9972
2023-04-09T02:04:51.165Z,51.2450
2023-04-09T02:05:52.939Z,51.6241
2023-04-09T02:06:54.257Z,51.5299
2023-04-09T02:07:55.895Z,51.3411
2023-04-09T02:08:57.613Z,51.1335
2023-04-09T02:09:59.283Z,54.4775
2023-04-09T02:11:00.840Z,56.7960
2023-04-09T02:12:02.542Z,56.9986
2023-04-09T02:13:04.157Z,56.4080
2023-04-09T02:14:05.990Z,55.6916
2023-04-09T02:15:07.595Z,54.9735
2023-04-09T02:16:09.178Z,54.8657
2023-04-09T02:17:10.796Z,54.9975
2023-04-09T02:18:12.451Z,55.2399
2023-04-09T02:19:14.076Z,55.4036
2023-04-09T02:20:15.820Z,54.9150
2023-04-09T02:21:17.353Z,54.4437
2023-04-09T02:22:19.019Z,54.0425
2023-04-09T02:23:20.728Z,53.9214
2023-04-09T02:24:22.447Z,54.1099
2023-04-09T02:25:24.078Z,54.4589
2023-04-09T02:26:25.642Z,54.5361
2023-04-09T02:27:27.406Z,54.1152
2023-04-09T02:28:29.049Z,53.7634
2023-04-09T02:29:30.649Z,53.3617
2023-04-09T02:30:32.343Z,53.3269
2023-04-09T02:31:34.023Z,53.4211
2023-04-09T02:32:35.744Z,53.7504
2023-04-09T02:33:37.353Z,53.6022
2023-04-09T02:34:39.059Z,53.2727
2023-04-09T02:35:40.670Z,52.9278
2023-04-09T02:36:42.334Z,52.6913
2023-04-09T02:37:44.014Z,52.7036
2023-04-09T02:38:45.604Z,52.9914
2023-04-09T02:39:47.406Z,53.1333
2023-04-09T02:40:48.948Z,52.9023
2023-04-09T02:41:50.642Z,52.5965
2023-04-09T02:42:52.172Z,52.2723
2023-04-09T02:43:53.910Z,52.0670
2023-04-09T02:44:55.577Z,52.1389
2023-04-09T02:45:57.459Z,52.5050
2023-04-09T02:46:58.780Z,52.5776
2023-04-09T02:48:00.501Z,52.4061
2023-04-09T02:49:02.858Z,52.1277
2023-04-09T02:50:03.897Z,51.8002
2023-04-09T02:51:05.597Z,51.7827
2023-04-09T02:52:07.114Z,51.9586
2023-04-09T02:53:08.894Z,52.1325
2023-04-09T02:54:10.412Z,51.4833
2023-04-09T02:55:12.069Z,50.3186
2023-04-09T02:56:13.815Z,49.2729
2023-04-09T02:57:15.261Z,48.3350
2023-04-09T02:58:16.992Z,47.6331
2023-04-09T02:59:18.727Z,47.3508
2023-04-09T03:00:20.348Z,47.2976
2023-04-09T03:01:22.135Z,47.2859
2023-04-09T03:02:23.818Z,47.4028
2023-04-09T03:03:26.040Z,47.5041
2023-04-09T03:04:26.980Z,47.4608
2023-04-09T03:05:28.520Z,47.3801
2023-04-09T03:06:30.294Z,47.3892
2023-04-09T03:07:31.856Z,47.3558
2023-04-09T03:08:33.504Z,47.2588
2023-04-09T03:09:35.157Z,47.0795
2023-04-09T03:10:36.820Z,47.0417
2023-04-09T03:11:38.536Z,47.1114
2023-04-09T03:12:40.128Z,47.2318
2023-04-09T03:13:41.820Z,47.0178
2023-04-09T03:14:43.483Z,46.8185
2023-04-09T03:15:45.125Z,46.8408
2023-04-09T03:16:46.781Z,46.8809
2023-04-09T03:17:48.433Z,46.8452
2023-04-09T03:18:50.256Z,46.7285
2023-04-09T03:19:51.686Z,46.6395
2023-04-09T03:20:53.341Z,46.4893
2023-04-09T03:21:55.031Z,46.4169
2023-04-09T03:22:56.638Z,46.3546
2023-04-09T03:23:58.321Z,46.4035
2023-04-09T03:24:59.983Z,46.2716
2023-04-09T03:26:01.616Z,46.1688
2023-04-09T03:27:03.362Z,46.1007
2023-04-09T03:28:04.876Z,46.0704
2023-04-09T03:29:06.616Z,46.0766
2023-04-09T03:30:08.235Z,46.1354
2023-04-09T03:31:09.964Z,46.1995
2023-04-09T03:32:11.545Z,46.2119
2023-04-09T03:33:13.187Z,46.1725
2023-04-09T03:34:14.836Z,45.9050
2023-04-09T03:35:16.464Z,45.8773
2023-04-09T03:36:18.091Z,45.9672
2023-04-09T03:37:19.818Z,46.0163
2023-04-09T03:38:21.408Z,45.9854
2023-04-09T03:39:23.121Z,45.9139
2023-04-09T03:40:24.740Z,45.8241
2023-04-09T03:41:26.469Z,45.6606
2023-04-09T03:42:27.998Z,45.6210
2023-04-09T03:43:29.703Z,45.6423
2023-04-09T03:44:31.954Z,45.6075
2023-04-09T03:45:33.017Z,45.6126
2023-04-09T03:46:34.750Z,45.6611
2023-04-09T03:47:36.354Z,45.5517
2023-04-09T03:48:38.009Z,45.5001
2023-04-09T03:49:39.614Z,45.4388
2023-04-09T03:50:41.252Z,45.3836
2023-04-09T03:51:42.937Z,45.4150
2023-04-09T03:52:44.651Z,45.4546
2023-04-09T03:53:46.335Z,45.5073
2023-04-09T03:54:47.962Z,45.4165
2023-04-09T03:55:49.626Z,45.3139
2023-04-09T03:56:52.068Z,45.3035
2023-04-09T03:57:52.934Z,45.3643
2023-04-09T03:58:54.881Z,45.4267
2023-04-09T03:59:56.248Z,45.4276
2023-04-09T04:00:57.769Z,45.2697
2023-04-09T04:01:59.549Z,45.2343
2023-04-09T04:03:01.372Z,45.3066
2023-04-09T04:04:02.941Z,45.3602
2023-04-09T04:05:04.493Z,45.3899
2023-04-09T04:06:06.160Z,45.4136
2023-04-09T04:07:07.804Z,45.3864
2023-04-09T04:08:09.423Z,45.3145
2023-04-09T04:09:11.023Z,45.3126
2023-04-09T04:10:12.794Z,45.3620
2023-04-09T04:11:14.374Z,45.3222
2023-04-09T04:12:16.020Z,45.3974
2023-04-09T04:13:17.707Z,45.3361
2023-04-09T04:14:19.355Z,45.2823
2023-04-09T04:15:21.044Z,45.3778
2023-04-09T04:16:22.697Z,45.4157
2023-04-09T04:17:24.341Z,45.4875
2023-04-09T04:18:25.957Z,45.5387
2023-04-09T04:19:27.614Z,45.5454
2023-04-09T04:20:29.244Z,45.4475
2023-04-09T04:21:30.919Z,45.4118
2023-04-09T04:22:32.602Z,45.4349
2023-04-09T04:23:34.250Z,45.4103
2023-04-09T04:24:35.901Z,45.3704
2023-04-09T04:25:37.541Z,45.3660
2023-04-09T04:26:39.229Z,45.3910
2023-04-09T04:27:40.893Z,45.2668
2023-04-09T04:28:42.556Z,45.1686
2023-04-09T04:29:44.141Z,45.1226
2023-04-09T04:30:45.867Z,45.1062
2023-04-09T04:31:47.497Z,45.1490
2023-04-09T04:32:49.097Z,45.1585
2023-04-09T04:33:50.782Z,45.2042
2023-04-09T04:34:52.425Z,45.2691
2023-04-09T04:35:54.144Z,45.1756
2023-04-09T04:36:55.633Z,45.0943
2023-04-09T04:37:57.399Z,45.1267
2023-04-09T04:38:59.067Z,45.0573
2023-04-09T04:40:00.666Z,45.0797
2023-04-09T04:41:02.306Z,45.1071
2023-04-09T04:42:03.947Z,45.1567
2023-04-09T04:43:05.665Z,45.1127
2023-04-09T04:44:07.311Z,44.9696
2023-04-09T04:45:09.052Z,44.9551
2023-04-09T04:46:10.622Z,45.1032
2023-04-09T04:47:12.244Z,45.1985
2023-04-09T04:48:13.917Z,45.3737
2023-04-09T04:49:16.324Z,45.4782
2023-04-09T04:50:17.256Z,45.4394
2023-04-09T04:51:18.841Z,45.4528
2023-04-09T04:52:20.475Z,45.6998
2023-04-09T04:53:22.139Z,45.9361
2023-04-09T04:54:23.842Z,45.8899
2023-04-09T04:55:26.505Z,45.7155
2023-04-09T04:56:27.114Z,45.5778
2023-04-09T04:57:28.939Z,45.6478
2023-04-09T04:58:30.423Z,45.8098
2023-04-09T04:59:32.200Z,45.8126
2023-04-09T05:00:33.734Z,45.7713
2023-04-09T05:01:35.418Z,45.7335
2023-04-09T05:02:37.186Z,45.7467
2023-04-09T05:03:38.779Z,45.6954
2023-04-09T05:04:40.392Z,45.7288
2023-04-09T05:05:42.002Z,45.7971
2023-04-09T05:06:43.662Z,45.9362
2023-04-09T05:07:45.306Z,46.2058
2023-04-09T05:08:47.009Z,46.3051
2023-04-09T05:09:48.626Z,46.4419
2023-04-09T05:10:50.220Z,46.5115
2023-04-09T05:11:51.930Z,46.4159
2023-04-09T05:12:53.611Z,46.4168
2023-04-09T05:13:55.186Z,46.5338
2023-04-09T05:14:56.986Z,46.5344
2023-04-09T05:15:58.630Z,46.5246
2023-04-09T05:17:00.216Z,46.6834
2023-04-09T05:18:01.925Z,46.7145
2023-04-09T05:19:03.528Z,46.6687
2023-04-09T05:20:05.949Z,46.6736
2023-04-09T05:21:07.457Z,46.7627
2023-04-09T05:22:08.464Z,46.7167
2023-04-09T05:23:10.082Z,46.8194
2023-04-09T05:24:11.737Z,46.8555
2023-04-09T05:25:13.410Z,46.8772
2023-04-09T05:26:14.995Z,46.7635
2023-04-09T05:27:16.722Z,46.6870
2023-04-09T05:28:18.434Z,46.7265
2023-04-09T05:29:20.058Z,46.8337
2023-04-09T05:30:21.724Z,46.8661
2023-04-09T05:31:23.257Z,46.8582
2023-04-09T05:32:25.221Z,46.8887
2023-04-09T05:33:26.679Z,46.9786
2023-04-09T05:34:28.265Z,47.0417
2023-04-09T05:35:29.983Z,47.0467
2023-04-09T05:36:31.577Z,47.0247
2023-04-09T05:37:33.499Z,46.9899
2023-04-09T05:38:34.965Z,47.0197
2023-04-09T05:39:37.502Z,46.9925
2023-04-09T05:40:38.298Z,47.0508
2023-04-09T05:41:39.857Z,47.3464
2023-04-09T05:42:41.537Z,47.5809
2023-04-09T05:43:43.439Z,47.7516
2023-04-09T05:44:44.857Z,47.7288
2023-04-09T05:45:46.718Z,47.4842
2023-04-09T05:46:48.189Z,47.2758
2023-04-09T05:47:49.824Z,47.0793
2023-04-09T05:48:51.595Z,47.1032
2023-04-09T05:49:53.246Z,47.4524
2023-04-09T05:50:55.841Z,47.7462
2023-04-09T05:51:56.517Z,47.4033
2023-04-09T05:52:58.191Z,47.1106
2023-04-09T05:53:59.858Z,46.8662
2023-04-09T05:55:01.492Z,46.8546
2023-04-09T05:56:03.126Z,47.1004
2023-04-09T05:57:04.811Z,47.3876
2023-04-09T05:58:06.499Z,47.1931
2023-04-09T05:59:07.995Z,46.8962
2023-04-09T06:00:10.102Z,46.7340
2023-04-09T06:01:11.356Z,46.7393
2023-04-09T06:02:13.004Z,47.0230
2023-04-09T06:03:14.777Z,47.1689
2023-04-09T06:04:16.406Z,46.8876
2023-04-09T06:05:18.581Z,46.7831
2023-04-09T06:06:19.632Z,46.5414
2023-04-09T06:07:21.241Z,46.6898
2023-04-09T06:08:22.958Z,46.9202
2023-04-09T06:09:24.612Z,47.0520
2023-04-09T06:10:26.537Z,46.8361
2023-04-09T06:11:28.009Z,46.7877
2023-04-09T06:12:29.911Z,46.6735
2023-04-09T06:13:31.202Z,46.8869
2023-04-09T06:14:32.882Z,47.1350
2023-04-09T06:15:34.555Z,47.0000
2023-04-09T06:16:36.130Z,46.6818
2023-04-09T06:17:37.804Z,46.4946
2023-04-09T06:18:39.611Z,46.4348
2023-04-09T06:19:41.170Z,46.6961
2023-04-09T06:20:42.911Z,47.1071
2023-04-09T06:21:44.297Z,46.8961
2023-04-09T06:22:45.987Z,46.5127
2023-04-09T06:23:47.642Z,46.4331
2023-04-09T06:24:49.279Z,46.4807
2023-04-09T06:25:50.972Z,46.7948
2023-04-09T06:26:52.607Z,47.1005
2023-04-09T06:27:54.212Z,47.0938
2023-04-09T06:28:55.877Z,46.8410
2023-04-09T06:29:57.550Z,46.6708
2023-04-09T06:30:59.300Z,46.6379
2023-04-09T06:32:00.786Z,46.8386
2023-04-09T06:33:02.572Z,47.1119
2023-04-09T06:34:04.103Z,47.0237
2023-04-09T06:35:05.826Z,46.5852
2023-04-09T06:36:08.484Z,46.3593
2023-04-09T06:37:09.021Z,46.3697
2023-04-09T06:38:11.362Z,46.5494
2023-04-09T06:39:13.168Z,46.8414
2023-04-09T06:40:14.071Z,46.7484
2023-04-09T06:41:15.930Z,46.4201
2023-04-09T06:42:17.373Z,46.2614
2023-04-09T06:43:18.964Z,46.3047
2023-04-09T06:44:20.670Z,46.4637
2023-04-09T06:45:22.247Z,46.7095
2023-04-09T06:46:24.033Z,46.7554
2023-04-09T06:47:25.621Z,46.4394
2023-04-09T06:48:27.930Z,46.2710
2023-04-09T06:49:28.893Z,46.1818
2023-04-09T06:50:30.557Z,46.3926
2023-04-09T06:51:32.541Z,46.4851
2023-04-09T06:52:33.937Z,46.5958
2023-04-09T06:53:35.519Z,46.5267
2023-04-09T06:54:37.991Z,46.3387
2023-04-09T06:55:38.885Z,46.2242
2023-04-09T06:56:40.962Z,46.3985
2023-04-09T06:57:42.143Z,46.6249
2023-04-09T06:58:43.837Z,46.8081
2023-04-09T06:59:45.486Z,46.5411
2023-04-09T07:00:47.089Z,46.2563
2023-04-09T07:01:49.385Z,46.1508
2023-04-09T07:02:50.673Z,46.4467
2023-04-09T07:03:52.625Z,46.7310
2023-04-09T07:04:53.729Z,46.8486
2023-04-09T07:05:55.432Z,46.5171
2023-04-09T07:06:58.150Z,46.1938
2023-04-09T07:07:58.703Z,46.0219
2023-04-09T07:09:00.461Z,46.2333
2023-04-09T07:10:02.019Z,46.5667
2023-04-09T07:11:03.669Z,46.7962
2023-04-09T07:12:05.386Z,46.4156
2023-04-09T07:13:07.495Z,46.2116
2023-04-09T07:14:08.625Z,46.1367
2023-04-09T07:15:10.318Z,46.2838
2023-04-09T07:16:11.943Z,46.4806
2023-04-09T07:17:13.634Z,46.5588
2023-04-09T07:18:15.265Z,46.1878
2023-04-09T07:19:16.777Z,45.9791
2023-04-09T07:20:18.566Z,45.8865
2023-04-09T07:21:20.165Z,46.0003
2023-04-09T07:22:22.128Z,46.1973
2023-04-09T07:23:23.577Z,46.3405
2023-04-09T07:24:25.301Z,46.2291
2023-04-09T07:25:26.778Z,46.0149
2023-04-09T07:26:28.509Z,46.0084
2023-04-09T07:27:30.101Z,46.0702
2023-04-09T07:28:31.757Z,46.2779
2023-04-09T07:29:33.586Z,46.2582
2023-04-09T07:30:35.013Z,46.0419
2023-04-09T07:31:36.619Z,45.8605
2023-04-09T07:32:38.444Z,45.9648
2023-04-09T07:33:39.957Z,46.1664
2023-04-09T07:34:41.597Z,46.4949
2023-04-09T07:35:43.216Z,46.1853
2023-04-09T07:36:44.954Z,45.8721
2023-04-09T07:37:47.003Z,45.8333
2023-04-09T07:38:48.551Z,45.9466
2023-04-09T07:39:49.888Z,46.0119
2023-04-09T07:40:51.902Z,45.9069
2023-04-09T07:41:53.148Z,45.4629
2023-04-09T07:42:54.834Z,45.2787
2023-04-09T07:43:56.565Z,45.4215
2023-04-09T07:44:58.250Z,45.6174
2023-04-09T07:45:59.853Z,45.8400
2023-04-09T07:47:01.557Z,45.4521
2023-04-09T07:48:03.510Z,45.1340
2023-04-09T07:49:04.943Z,45.2053
2023-04-09T07:50:06.351Z,45.2968
2023-04-09T07:51:08.934Z,45.4892
2023-04-09T07:52:09.666Z,45.4470
2023-04-09T07:53:12.004Z,44.9537
2023-04-09T07:54:13.094Z,44.6556
2023-04-09T07:55:15.154Z,44.7159
2023-04-09T07:56:16.223Z,44.7647
2023-04-09T07:57:17.869Z,44.9522
2023-04-09T07:58:19.613Z,44.7681
2023-04-09T07:59:21.217Z,44.3879
2023-04-09T08:00:22.856Z,44.2849
2023-04-09T08:01:24.508Z,44.4432
2023-04-09T08:02:26.364Z,44.6552
2023-04-09T08:03:28.115Z,44.9070
2023-04-09T08:04:29.487Z,44.6416
2023-04-09T08:05:31.142Z,44.2506
2023-04-09T08:06:32.737Z,44.3588
2023-04-09T08:07:34.482Z,44.5379
2023-04-09T08:08:36.103Z,44.6671
2023-04-09T08:09:37.761Z,44.6621
2023-04-09T08:10:39.368Z,44.2896
2023-04-09T08:11:40.984Z,43.9914
2023-04-09T08:12:42.706Z,44.1013
2023-04-09T08:13:44.622Z,44.3782
2023-04-09T08:14:45.940Z,44.6692
2023-04-09T08:15:47.635Z,44.6633
2023-04-09T08:16:49.372Z,44.2207
2023-04-09T08:17:51.497Z,43.9565
2023-04-09T08:18:52.932Z,44.1366
2023-04-09T08:19:54.586Z,44.3121
2023-04-09T08:20:55.839Z,44.5594
2023-04-09T08:21:57.567Z,44.2702
2023-04-09T08:22:59.207Z,43.8229
2023-04-09T08:24:00.833Z,43.7661
2023-04-09T08:25:03.537Z,43.9528
2023-04-09T08:26:04.073Z,44.0471
2023-04-09T08:27:05.748Z,44.2998
2023-04-09T08:28:07.410Z,44.0278
2023-04-09T08:29:09.109Z,43.6624
2023-04-09T08:30:10.730Z,43.4995
2023-04-09T08:31:12.448Z,43.6800
2023-04-09T08:32:14.045Z,44.0864
2023-04-09T08:33:15.641Z,44.1984
2023-04-09T08:34:17.584Z,43.8315
2023-04-09T08:35:19.058Z,43.3675
2023-04-09T08:36:21.593Z,43.3934
2023-04-09T08:37:22.419Z,43.4959
2023-04-09T08:38:24.094Z,43.9025
2023-04-09T08:39:25.792Z,43.9813
2023-04-09T08:40:27.581Z,43.6797
2023-04-09T08:41:28.944Z,43.3708
2023-04-09T08:42:30.545Z,43.3250
2023-04-09T08:43:52.531Z,43.5395
2023-04-09T08:44:33.963Z,43.9266
2023-04-09T08:45:35.604Z,43.9181
2023-04-09T08:46:37.147Z,43.5208
2023-04-09T08:47:38.934Z,43.1075
2023-04-09T08:48:40.586Z,43.1142
2023-04-09T08:49:43.034Z,43.3405
2023-04-09T08:50:43.767Z,43.7468
2023-04-09T08:51:45.450Z,43.7731
2023-04-09T08:52:47.132Z,43.4364
2023-04-09T08:53:48.723Z,43.2169
2023-04-09T08:54:50.447Z,43.2519
2023-04-09T08:55:53.152Z,43.4894
2023-04-09T08:56:53.812Z,43.7138
2023-04-09T08:57:56.094Z,43.4236
2023-04-09T08:58:57.139Z,42.9433
2023-04-09T08:59:59.121Z,42.7665
2023-04-09T09:01:00.488Z,42.8973
2023-04-09T09:02:02.087Z,43.1819
2023-04-09T09:03:03.824Z,43.4888
2023-04-09T09:04:05.380Z,43.1429
2023-04-09T09:05:07.163Z,42.7205
2023-04-09T09:06:08.646Z,42.5908
2023-04-09T09:07:10.376Z,42.9159
2023-04-09T09:08:12.607Z,43.2522
2023-04-09T09:09:13.576Z,43.3428
2023-04-09T09:10:15.714Z,42.9756
2023-04-09T09:11:16.933Z,42.4875
2023-04-09T09:12:18.654Z,42.3832
2023-04-09T09:13:20.266Z,42.6728
2023-04-09T09:14:21.947Z,43.0517
2023-04-09T09:15:23.714Z,43.0312
2023-04-09T09:16:25.187Z,42.6213
2023-04-09T09:17:26.947Z,42.2875
2023-04-09T09:18:28.521Z,42.4661
2023-04-09T09:19:30.656Z,42.8642
2023-04-09T09:20:32.326Z,43.1380
2023-04-09T09:21:33.591Z,42.9385
2023-04-09T09:22:35.148Z,42.5196
2023-04-09T09:23:36.880Z,42.2661
2023-04-09T09:24:38.494Z,42.4025
2023-04-09T09:25:40.128Z,42.7291
2023-04-09T09:26:41.850Z,42.8785
2023-04-09T09:27:43.402Z,42.6489
2023-04-09T09:28:45.050Z,42.1850
2023-04-09T09:29:46.714Z,42.0401
2023-04-09T09:30:49.526Z,42.2001
2023-04-09T09:31:50.079Z,42.5467
2023-04-09T09:32:51.765Z,42.7216
2023-04-09T09:33:53.308Z,42.4330
2023-04-09T09:34:54.874Z,41.9667
2023-04-09T09:35:56.730Z,41.8892
2023-04-09T09:36:58.268Z,42.0767
2023-04-09T09:37:59.954Z,42.4444
2023-04-09T09:39:01.586Z,42.6211
2023-04-09T09:40:03.180Z,42.3391
2023-04-09T09:41:04.878Z,41.9774
2023-04-09T09:42:06.482Z,41.9986
2023-04-09T09:43:08.205Z,42.1894
2023-04-09T09:44:09.701Z,42.5017
2023-04-09T09:45:11.454Z,42.4941
2023-04-09T09:46:13.231Z,42.0898
2023-04-09T09:47:14.836Z,41.7968
2023-04-09T09:48:16.501Z,41.7869
2023-04-09T09:49:18.112Z,42.0627
2023-04-09T09:50:19.693Z,42.3536
2023-04-09T09:51:21.394Z,42.2468
2023-04-09T09:52:23.084Z,41.8214
2023-04-09T09:53:24.665Z,41.6049
2023-04-09T09:54:26.365Z,41.7932
2023-04-09T09:55:28.144Z,42.0545
2023-04-09T09:56:29.792Z,42.2310
2023-04-09T09:57:31.421Z,41.9712
2023-04-09T09:58:33.094Z,41.5971
2023-04-09T09:59:34.674Z,41.4850
2023-04-09T10:00:36.359Z,41.7449
2023-04-09T10:01:38.148Z,41.9849
2023-04-09T10:02:39.699Z,42.0563
2023-04-09T10:03:41.372Z,41.7837
2023-04-09T10:04:43.068Z,41.3561
2023-04-09T10:05:44.583Z,41.3867
2023-04-09T10:06:46.354Z,41.6702
2023-04-09T10:07:47.885Z,41.9873
2023-04-09T10:08:49.710Z,42.0812
2023-04-09T10:09:51.214Z,41.6759
2023-04-09T10:10:52.991Z,41.3136
2023-04-09T10:11:54.670Z,41.4324
2023-04-09T10:12:56.476Z,41.5656
2023-04-09T10:13:57.795Z,41.8942
2023-04-09T10:14:59.510Z,42.0078
2023-04-09T10:16:01.144Z,41.6379
2023-04-09T10:17:02.856Z,41.2802
2023-04-09T10:18:04.475Z,41.3183
2023-04-09T10:19:06.075Z,41.6154
2023-04-09T10:20:07.722Z,41.8850
2023-04-09T10:21:09.369Z,41.8770
2023-04-09T10:22:11.052Z,41.4534
2023-04-09T10:23:13.215Z,41.1271
2023-04-09T10:24:14.278Z,41.2822
2023-04-09T10:25:15.984Z,41.4483
2023-04-09T10:26:17.716Z,41.6898
2023-04-09T10:27:19.390Z,41.7288
2023-04-09T10:28:20.963Z,41.3998
2023-04-09T10:29:22.650Z,41.0639
2023-04-09T10:30:24.220Z,41.1992
2023-04-09T10:31:25.908Z,41.4181
2023-04-09T10:32:28.604Z,41.5849
2023-04-09T10:33:29.245Z,41.5869
2023-04-09T10:34:30.939Z,41.1878
2023-04-09T10:35:32.475Z,40.8419
2023-04-09T10:36:34.165Z,40.8373
2023-04-09T10:37:35.873Z,41.1222
2023-04-09T10:38:37.471Z,41.4224
2023-04-09T10:39:39.161Z,41.4423
2023-04-09T10:40:40.735Z,41.1361
2023-04-09T10:41:42.442Z,40.8324
2023-04-09T10:42:44.143Z,40.8997
2023-04-09T10:43:45.751Z,41.0877
2023-04-09T10:44:47.415Z,41.3858
2023-04-09T10:45:49.061Z,41.3679
2023-04-09T10:46:50.803Z,40.9930
2023-04-09T10:47:52.842Z,40.6493
2023-04-09T10:48:54.131Z,40.7626
2023-04-09T10:49:55.708Z,40.8513
2023-04-09T10:50:57.322Z,41.0456
2023-04-09T10:51:59.000Z,41.0758
2023-04-09T10:53:00.735Z,40.8066
2023-04-09T10:54:02.298Z,40.5235
2023-04-09T10:55:03.913Z,40.5556
2023-04-09T10:56:05.562Z,40.7950
2023-04-09T10:57:07.307Z,41.0028
2023-04-09T10:58:11.296Z,41.0893
2023-04-09T10:59:10.595Z,40.7151
2023-04-09T11:00:12.541Z,40.4284
2023-04-09T11:01:13.851Z,40.4435
2023-04-09T11:02:15.564Z,40.6800
2023-04-09T11:03:17.370Z,40.9206
2023-04-09T11:04:18.648Z,40.9729
2023-04-09T11:05:20.320Z,40.5778
2023-04-09T11:06:21.984Z,40.2427
2023-04-09T11:07:23.692Z,40.4538
2023-04-09T11:08:25.313Z,40.7079
2023-04-09T11:09:26.910Z,40.9379
2023-04-09T11:10:28.578Z,40.8877
2023-04-09T11:11:30.241Z,40.5479
2023-04-09T11:12:31.878Z,40.2242
2023-04-09T11:13:33.541Z,40.2641
2023-04-09T11:14:35.180Z,40.5676
2023-04-09T11:15:36.826Z,40.7178
2023-04-09T11:16:38.664Z,40.6784
2023-04-09T11:17:40.277Z,40.3562
2023-04-09T11:18:42.172Z,40.1555
2023-04-09T11:19:43.504Z,40.3142
2023-04-09T11:20:45.078Z,40.5860
2023-04-09T11:21:46.817Z,40.8328
2023-04-09T11:22:48.419Z,40.7759
2023-04-09T11:23:50.155Z,40.4485
2023-04-09T11:24:51.770Z,40.1082
2023-04-09T11:25:53.368Z,40.1589
2023-04-09T11:26:55.092Z,40.4007
2023-04-09T11:27:56.647Z,40.6176
2023-04-09T11:28:59.145Z,40.4701
2023-04-09T11:30:00.134Z,40.1824
2023-04-09T11:31:01.794Z,40.0078
2023-04-09T11:32:03.262Z,40.1104
2023-04-09T11:33:05.129Z,40.3489
2023-04-09T11:34:06.667Z,40.5106
2023-04-09T11:35:08.243Z,40.3075
2023-04-09T11:36:09.854Z,40.0420
2023-04-09T11:37:11.546Z,40.0564
2023-04-09T11:38:14.048Z,40.2253
2023-04-09T11:39:15.145Z,40.4351
2023-04-09T11:40:16.540Z,40.3964
2023-04-09T11:41:18.188Z,40.0064
2023-04-09T11:42:19.755Z,39.6480
2023-04-09T11:43:21.459Z,39.7758
2023-04-09T11:44:23.701Z,39.9432
2023-04-09T11:45:24.722Z,40.1586
2023-04-09T11:46:27.456Z,40.1321
2023-04-09T11:47:28.045Z,39.7889
2023-04-09T11:48:29.784Z,39.4231
2023-04-09T11:49:32.245Z,39.4986
2023-04-09T11:50:33.027Z,39.7644
2023-04-09T11:51:34.749Z,39.9781
2023-04-09T11:52:36.452Z,39.9854
2023-04-09T11:53:38.073Z,39.6737
2023-04-09T11:54:39.740Z,39.3131
2023-04-09T11:55:41.378Z,39.2492
2023-04-09T11:56:43.075Z,39.4798
2023-04-09T11:57:44.681Z,39.6673
2023-04-09T11:58:46.327Z,39.6396
2023-04-09T11:59:48.129Z,39.3190
2023-04-09T12:00:49.676Z,38.9605
2023-04-09T12:01:51.515Z,38.8817
2023-04-09T12:02:53.301Z,39.0994
2023-04-09T12:03:54.675Z,39.1510
2023-04-09T12:04:56.620Z,39.0963
2023-04-09T12:05:57.764Z,38.9013
2023-04-09T12:06:59.482Z,38.6268
2023-04-09T12:08:01.067Z,38.7294
2023-04-09T12:09:02.831Z,38.8002
2023-04-09T12:10:04.560Z,39.0208
2023-04-09T12:11:06.076Z,39.0067
2023-04-09T12:12:08.680Z,38.8335
2023-04-09T12:13:09.370Z,38.5476
2023-04-09T12:14:11.033Z,38.4294
2023-04-09T12:15:12.806Z,38.4923
2023-04-09T12:16:14.577Z,38.7401
2023-04-09T12:17:15.963Z,38.7472
2023-04-09T12:18:17.693Z,38.6331
2023-04-09T12:19:19.333Z,38.2746
2023-04-09T12:20:21.209Z,38.1650
2023-04-09T12:21:22.572Z,38.3085
2023-04-09T12:22:24.226Z,38.5225
2023-04-09T12:23:25.987Z,38.5716
2023-04-09T12:24:27.571Z,38.4284
2023-04-09T12:25:29.271Z,38.1588